sensor_id;sensor_type;location;lat;lon;timestamp;pressure;altitude;pressure_sealevel;temperature;humidity
34983;BME280;21187;50.976;13.720;2022-12-08T00:03:16;97607.91;;;4.24;62.26
34983;BME280;21187;50.976;13.720;2022-12-08T00:08:18;97600.06;;;4.19;61.86
34983;BME280;21187;50.976;13.720;2022-12-08T00:13:39;97603.53;;;4.10;62.25
34983;BME280;21187;50.976;13.720;2022-12-08T00:18:41;97600.84;;;4.10;62.77
34983;BME280;21187;50.976;13.720;2022-12-08T00:23:43;97597.72;;;4.08;62.26
34983;BME280;21187;50.976;13.720;2022-12-08T00:28:45;97595.81;;;4.09;62.74
34983;BME280;21187;50.976;13.720;2022-12-08T00:33:47;97598.97;;;4.11;62.24
34983;BME280;21187;50.976;13.720;2022-12-08T00:38:49;97598.66;;;4.12;62.21
34983;BME280;21187;50.976;13.720;2022-12-08T00:43:50;97593.47;;;4.07;62.89
34983;BME280;21187;50.976;13.720;2022-12-08T00:48:52;97589.97;;;4.15;61.99
34983;BME280;21187;50.976;13.720;2022-12-08T00:53:54;97590.09;;;4.19;61.90
34983;BME280;21187;50.976;13.720;2022-12-08T00:58:56;97589.97;;;4.15;62.09
34983;BME280;21187;50.976;13.720;2022-12-08T01:04:05;97583.31;;;4.22;61.97
34983;BME280;21187;50.976;13.720;2022-12-08T01:09:07;97587.56;;;4.23;62.31
34983;BME280;21187;50.976;13.720;2022-12-08T01:14:09;97589.34;;;4.19;62.45
34983;BME280;21187;50.976;13.720;2022-12-08T01:19:13;97586.47;;;4.24;62.25
34983;BME280;21187;50.976;13.720;2022-12-08T01:24:18;97582.84;;;4.20;62.05
34983;BME280;21187;50.976;13.720;2022-12-08T01:29:20;97578.28;;;4.20;62.38
34983;BME280;21187;50.976;13.720;2022-12-08T01:34:22;97583.00;;;4.23;62.21
34983;BME280;21187;50.976;13.720;2022-12-08T01:39:24;97587.44;;;4.19;62.29
34983;BME280;21187;50.976;13.720;2022-12-08T01:49:30;97562.63;;;4.31;61.44
34983;BME280;21187;50.976;13.720;2022-12-08T01:54:37;97567.91;;;4.19;62.15
34983;BME280;21187;50.976;13.720;2022-12-08T01:59:43;97543.84;;;4.31;62.02
34983;BME280;21187;50.976;13.720;2022-12-08T02:04:47;97547.63;;;4.30;61.93
34983;BME280;21187;50.976;13.720;2022-12-08T02:09:49;97548.31;;;4.27;62.47
34983;BME280;21187;50.976;13.720;2022-12-08T02:14:51;97547.56;;;4.18;61.80
34983;BME280;21187;50.976;13.720;2022-12-08T02:25:04;97540.94;;;4.15;62.30
34983;BME280;21187;50.976;13.720;2022-12-08T02:30:17;97538.41;;;4.19;62.01
34983;BME280;21187;50.976;13.720;2022-12-08T02:40:34;97532.56;;;4.16;62.00
34983;BME280;21187;50.976;13.720;2022-12-08T02:45:43;97534.66;;;4.11;61.95
34983;BME280;21187;50.976;13.720;2022-12-08T02:50:46;97539.88;;;4.07;62.30
34983;BME280;21187;50.976;13.720;2022-12-08T03:11:57;97501.06;;;4.13;62.10
34983;BME280;21187;50.976;13.720;2022-12-08T03:17:01;97505.44;;;4.18;61.70
34983;BME280;21187;50.976;13.720;2022-12-08T03:22:05;97507.34;;;4.18;61.40
34983;BME280;21187;50.976;13.720;2022-12-08T03:27:20;97505.13;;;4.20;61.65
34983;BME280;21187;50.976;13.720;2022-12-08T03:32:29;97507.81;;;4.20;61.87
34983;BME280;21187;50.976;13.720;2022-12-08T03:37:35;97501.53;;;4.15;61.58
34983;BME280;21187;50.976;13.720;2022-12-08T03:42:37;97494.13;;;4.12;61.88
34983;BME280;21187;50.976;13.720;2022-12-08T03:47:39;97488.13;;;4.15;61.12
34983;BME280;21187;50.976;13.720;2022-12-08T03:52:41;97475.72;;;4.11;61.33
34983;BME280;21187;50.976;13.720;2022-12-08T03:57:43;97480.75;;;4.12;61.71
34983;BME280;21187;50.976;13.720;2022-12-08T04:02:45;97472.84;;;4.16;61.62
34983;BME280;21187;50.976;13.720;2022-12-08T04:07:47;97475.00;;;4.23;61.84
34983;BME280;21187;50.976;13.720;2022-12-08T04:12:49;97462.72;;;4.22;61.92
34983;BME280;21187;50.976;13.720;2022-12-08T04:17:50;97468.72;;;4.19;61.71
34983;BME280;21187;50.976;13.720;2022-12-08T04:22:52;97463.69;;;4.17;61.45
34983;BME280;21187;50.976;13.720;2022-12-08T04:27:54;97460.56;;;4.15;61.80
34983;BME280;21187;50.976;13.720;2022-12-08T04:32:57;97456.63;;;4.12;61.86
34983;BME280;21187;50.976;13.720;2022-12-08T04:37:59;97451.25;;;4.12;61.90
34983;BME280;21187;50.976;13.720;2022-12-08T04:43:01;97450.78;;;4.10;62.38
34983;BME280;21187;50.976;13.720;2022-12-08T04:48:03;97451.78;;;4.06;62.16
34983;BME280;21187;50.976;13.720;2022-12-08T04:53:05;97444.97;;;4.08;62.23
34983;BME280;21187;50.976;13.720;2022-12-08T04:58:11;97435.19;;;4.12;62.59
34983;BME280;21187;50.976;13.720;2022-12-08T05:03:14;97436.63;;;4.10;62.99
34983;BME280;21187;50.976;13.720;2022-12-08T05:08:16;97448.72;;;4.16;62.74
34983;BME280;21187;50.976;13.720;2022-12-08T05:13:18;97440.69;;;4.16;63.03
34983;BME280;21187;50.976;13.720;2022-12-08T05:18:19;97435.00;;;4.18;62.23
34983;BME280;21187;50.976;13.720;2022-12-08T05:23:21;97433.41;;;4.16;62.59
34983;BME280;21187;50.976;13.720;2022-12-08T05:28:24;97423.22;;;4.10;63.09
34983;BME280;21187;50.976;13.720;2022-12-08T05:33:43;97428.25;;;4.11;62.62
34983;BME280;21187;50.976;13.720;2022-12-08T05:38:46;97423.38;;;4.13;62.90
34983;BME280;21187;50.976;13.720;2022-12-08T05:43:48;97416.25;;;4.18;62.71
34983;BME280;21187;50.976;13.720;2022-12-08T05:48:50;97417.00;;;4.18;62.97
34983;BME280;21187;50.976;13.720;2022-12-08T05:53:53;97415.56;;;4.21;62.74
34983;BME280;21187;50.976;13.720;2022-12-08T05:58:55;97419.34;;;4.20;61.95
34983;BME280;21187;50.976;13.720;2022-12-08T06:03:58;97401.06;;;4.22;62.25
34983;BME280;21187;50.976;13.720;2022-12-08T06:09:04;97414.94;;;4.24;62.38
34983;BME280;21187;50.976;13.720;2022-12-08T06:14:10;97424.34;;;4.30;62.10
34983;BME280;21187;50.976;13.720;2022-12-08T06:19:12;97422.78;;;4.29;61.63
34983;BME280;21187;50.976;13.720;2022-12-08T06:24:14;97434.94;;;4.26;62.05
34983;BME280;21187;50.976;13.720;2022-12-08T06:29:16;97436.13;;;4.38;61.73
34983;BME280;21187;50.976;13.720;2022-12-08T06:34:18;97445.41;;;4.40;61.60
34983;BME280;21187;50.976;13.720;2022-12-08T06:39:20;97441.75;;;4.45;62.08
34983;BME280;21187;50.976;13.720;2022-12-08T06:44:22;97448.41;;;4.39;61.69
34983;BME280;21187;50.976;13.720;2022-12-08T06:49:24;97439.13;;;4.36;61.79
34983;BME280;21187;50.976;13.720;2022-12-08T06:54:26;97441.34;;;4.34;61.61
34983;BME280;21187;50.976;13.720;2022-12-08T06:59:28;97446.59;;;4.30;62.19
34983;BME280;21187;50.976;13.720;2022-12-08T07:04:30;97447.31;;;4.40;61.92
34983;BME280;21187;50.976;13.720;2022-12-08T07:09:31;97448.56;;;4.42;62.40
34983;BME280;21187;50.976;13.720;2022-12-08T07:14:33;97463.06;;;4.41;61.74
34983;BME280;21187;50.976;13.720;2022-12-08T07:19:35;97457.69;;;4.41;62.19
34983;BME280;21187;50.976;13.720;2022-12-08T07:24:37;97455.22;;;4.36;62.38
34983;BME280;21187;50.976;13.720;2022-12-08T07:29:39;97450.69;;;4.28;62.59
34983;BME280;21187;50.976;13.720;2022-12-08T07:34:41;97445.53;;;4.23;63.21
34983;BME280;21187;50.976;13.720;2022-12-08T07:39:43;97447.75;;;4.21;63.15
34983;BME280;21187;50.976;13.720;2022-12-08T07:44:45;97443.94;;;4.22;63.16
34983;BME280;21187;50.976;13.720;2022-12-08T07:49:47;97445.53;;;4.23;63.01
34983;BME280;21187;50.976;13.720;2022-12-08T07:54:48;97446.38;;;4.14;63.62
34983;BME280;21187;50.976;13.720;2022-12-08T07:59:50;97448.09;;;4.10;63.39
34983;BME280;21187;50.976;13.720;2022-12-08T08:04:52;97441.75;;;4.24;63.17
34983;BME280;21187;50.976;13.720;2022-12-08T08:09:54;97442.66;;;4.28;63.38
34983;BME280;21187;50.976;13.720;2022-12-08T08:14:56;97449.84;;;4.36;62.43
34983;BME280;21187;50.976;13.720;2022-12-08T08:19:59;97457.56;;;4.38;62.93
34983;BME280;21187;50.976;13.720;2022-12-08T08:25:00;97464.63;;;4.42;62.25
34983;BME280;21187;50.976;13.720;2022-12-08T08:30:04;97459.38;;;4.46;62.26
34983;BME280;21187;50.976;13.720;2022-12-08T08:35:07;97456.66;;;4.55;62.40
34983;BME280;21187;50.976;13.720;2022-12-08T08:40:09;97458.22;;;4.56;62.21
34983;BME280;21187;50.976;13.720;2022-12-08T08:45:11;97460.19;;;4.46;62.00
34983;BME280;21187;50.976;13.720;2022-12-08T08:50:13;97462.03;;;4.55;62.30
34983;BME280;21187;50.976;13.720;2022-12-08T08:55:15;97450.38;;;4.50;62.62
34983;BME280;21187;50.976;13.720;2022-12-08T09:00:17;97456.91;;;4.41;62.31
34983;BME280;21187;50.976;13.720;2022-12-08T09:05:19;97463.06;;;4.41;62.45
34983;BME280;21187;50.976;13.720;2022-12-08T09:10:22;97472.75;;;4.55;61.61
34983;BME280;21187;50.976;13.720;2022-12-08T09:15:23;97481.91;;;4.54;62.03
34983;BME280;21187;50.976;13.720;2022-12-08T09:20:25;97475.09;;;4.56;61.37
34983;BME280;21187;50.976;13.720;2022-12-08T09:25:27;97480.72;;;4.42;61.86
34983;BME280;21187;50.976;13.720;2022-12-08T09:30:29;97471.28;;;4.36;62.50
34983;BME280;21187;50.976;13.720;2022-12-08T09:35:32;97458.63;;;4.45;62.28
34983;BME280;21187;50.976;13.720;2022-12-08T09:40:42;97457.19;;;4.48;62.06
34983;BME280;21187;50.976;13.720;2022-12-08T09:45:49;97457.88;;;4.78;61.48
34983;BME280;21187;50.976;13.720;2022-12-08T09:50:54;97444.16;;;5.13;61.44
34983;BME280;21187;50.976;13.720;2022-12-08T09:56:02;97445.44;;;5.41;60.68
34983;BME280;21187;50.976;13.720;2022-12-08T10:01:08;97431.44;;;5.47;59.85
34983;BME280;21187;50.976;13.720;2022-12-08T10:11:34;97418.50;;;5.62;59.04
34983;BME280;21187;50.976;13.720;2022-12-08T10:16:41;97416.03;;;5.81;58.71
34983;BME280;21187;50.976;13.720;2022-12-08T10:21:45;97423.44;;;6.09;57.81
34983;BME280;21187;50.976;13.720;2022-12-08T10:26:48;97423.19;;;6.27;57.48
34983;BME280;21187;50.976;13.720;2022-12-08T10:31:50;97417.81;;;6.27;57.25
34983;BME280;21187;50.976;13.720;2022-12-08T10:36:54;97419.00;;;6.29;56.76
34983;BME280;21187;50.976;13.720;2022-12-08T10:42:20;97411.06;;;6.33;56.76
34983;BME280;21187;50.976;13.720;2022-12-08T10:47:25;97404.34;;;6.39;56.88
34983;BME280;21187;50.976;13.720;2022-12-08T10:52:27;97399.84;;;6.43;56.41
34983;BME280;21187;50.976;13.720;2022-12-08T10:57:29;97395.72;;;6.62;55.76
34983;BME280;21187;50.976;13.720;2022-12-08T11:02:31;97392.00;;;6.38;55.56
34983;BME280;21187;50.976;13.720;2022-12-08T11:07:33;97397.88;;;6.15;55.00
34983;BME280;21187;50.976;13.720;2022-12-08T11:12:34;97387.25;;;6.07;54.99
34983;BME280;21187;50.976;13.720;2022-12-08T11:17:38;97397.13;;;6.03;55.15
34983;BME280;21187;50.976;13.720;2022-12-08T11:22:41;97382.22;;;5.93;55.20
34983;BME280;21187;50.976;13.720;2022-12-08T11:27:46;97373.50;;;5.83;54.50
34983;BME280;21187;50.976;13.720;2022-12-08T11:33:02;97363.22;;;5.98;55.29
34983;BME280;21187;50.976;13.720;2022-12-08T11:38:13;97363.41;;;6.05;55.24
34983;BME280;21187;50.976;13.720;2022-12-08T11:48:52;97347.69;;;6.20;54.41
34983;BME280;21187;50.976;13.720;2022-12-08T12:04:46;97346.19;;;6.63;53.29
34983;BME280;21187;50.976;13.720;2022-12-08T12:10:04;97350.44;;;6.64;52.66
34983;BME280;21187;50.976;13.720;2022-12-08T12:26:24;97341.94;;;6.62;52.31
34983;BME280;21187;50.976;13.720;2022-12-08T12:31:30;97332.28;;;6.61;51.96
34983;BME280;21187;50.976;13.720;2022-12-08T12:36:46;97325.53;;;6.67;52.39
34983;BME280;21187;50.976;13.720;2022-12-08T12:41:55;97336.41;;;6.71;52.31
34983;BME280;21187;50.976;13.720;2022-12-08T12:51:59;97325.66;;;6.42;52.55
34983;BME280;21187;50.976;13.720;2022-12-08T13:07:32;97318.72;;;6.86;51.95
34983;BME280;21187;50.976;13.720;2022-12-08T13:12:34;97307.75;;;8.33;50.28
34983;BME280;21187;50.976;13.720;2022-12-08T13:17:43;97302.50;;;9.83;47.10
34983;BME280;21187;50.976;13.720;2022-12-08T13:23:02;97298.53;;;9.46;46.62
34983;BME280;21187;50.976;13.720;2022-12-08T13:33:22;97289.28;;;7.25;50.11
34983;BME280;21187;50.976;13.720;2022-12-08T13:38:27;97290.41;;;6.92;50.54
34983;BME280;21187;50.976;13.720;2022-12-08T13:43:38;97301.50;;;6.74;51.32
34983;BME280;21187;50.976;13.720;2022-12-08T13:49:02;97292.81;;;6.65;51.90
34983;BME280;21187;50.976;13.720;2022-12-08T13:54:29;97300.94;;;6.53;52.07
34983;BME280;21187;50.976;13.720;2022-12-08T13:59:53;97309.84;;;6.41;51.91
34983;BME280;21187;50.976;13.720;2022-12-08T14:05:00;97298.91;;;6.05;52.83
34983;BME280;21187;50.976;13.720;2022-12-08T14:10:23;97298.19;;;6.08;52.77
34983;BME280;21187;50.976;13.720;2022-12-08T14:15:27;97297.31;;;6.04;52.83
34983;BME280;21187;50.976;13.720;2022-12-08T14:20:36;97298.03;;;5.89;52.96
34983;BME280;21187;50.976;13.720;2022-12-08T14:25:57;97296.13;;;5.89;53.06
34983;BME280;21187;50.976;13.720;2022-12-08T14:30:59;97295.09;;;5.94;53.10
34983;BME280;21187;50.976;13.720;2022-12-08T14:36:02;97303.72;;;5.87;53.25
34983;BME280;21187;50.976;13.720;2022-12-08T14:41:07;97304.66;;;5.66;53.25
34983;BME280;21187;50.976;13.720;2022-12-08T14:46:20;97308.38;;;5.49;53.85
34983;BME280;21187;50.976;13.720;2022-12-08T14:51:27;97304.56;;;5.38;54.27
34983;BME280;21187;50.976;13.720;2022-12-08T15:01:38;97311.63;;;5.18;54.66
34983;BME280;21187;50.976;13.720;2022-12-08T15:06:56;97308.06;;;5.14;54.61
34983;BME280;21187;50.976;13.720;2022-12-08T15:12:01;97311.28;;;5.07;54.51
34983;BME280;21187;50.976;13.720;2022-12-08T15:17:34;97318.31;;;4.87;55.58
34983;BME280;21187;50.976;13.720;2022-12-08T15:22:37;97332.91;;;4.77;55.12
34983;BME280;21187;50.976;13.720;2022-12-08T15:27:39;97333.56;;;4.62;55.80
34983;BME280;21187;50.976;13.720;2022-12-08T15:32:51;97328.25;;;4.87;55.29
34983;BME280;21187;50.976;13.720;2022-12-08T15:37:54;97328.72;;;4.89;54.99
34983;BME280;21187;50.976;13.720;2022-12-08T15:42:56;97327.59;;;4.90;55.94
34983;BME280;21187;50.976;13.720;2022-12-08T15:47:59;97323.13;;;4.94;55.75
34983;BME280;21187;50.976;13.720;2022-12-08T15:53:01;97324.59;;;5.04;55.60
34983;BME280;21187;50.976;13.720;2022-12-08T15:58:03;97328.50;;;5.06;55.22
34983;BME280;21187;50.976;13.720;2022-12-08T16:03:29;97314.41;;;5.09;54.68
34983;BME280;21187;50.976;13.720;2022-12-08T16:08:52;97321.34;;;5.10;54.86
34983;BME280;21187;50.976;13.720;2022-12-08T16:14:12;97322.03;;;5.07;54.70
34983;BME280;21187;50.976;13.720;2022-12-08T16:19:34;97325.81;;;5.06;54.93
34983;BME280;21187;50.976;13.720;2022-12-08T16:24:36;97322.25;;;5.02;54.61
34983;BME280;21187;50.976;13.720;2022-12-08T16:29:38;97331.06;;;5.03;54.94
34983;BME280;21187;50.976;13.720;2022-12-08T16:34:40;97311.84;;;5.00;54.38
34983;BME280;21187;50.976;13.720;2022-12-08T16:39:43;97317.56;;;4.99;54.56
34983;BME280;21187;50.976;13.720;2022-12-08T16:44:46;97327.16;;;5.00;54.69
34983;BME280;21187;50.976;13.720;2022-12-08T16:49:48;97320.44;;;4.94;54.68
34983;BME280;21187;50.976;13.720;2022-12-08T16:54:50;97319.22;;;4.91;55.02
34983;BME280;21187;50.976;13.720;2022-12-08T16:59:52;97319.84;;;4.88;55.15
34983;BME280;21187;50.976;13.720;2022-12-08T17:04:54;97320.66;;;4.89;54.78
34983;BME280;21187;50.976;13.720;2022-12-08T17:09:57;97317.50;;;4.87;55.37
34983;BME280;21187;50.976;13.720;2022-12-08T17:15:01;97328.91;;;4.83;54.87
34983;BME280;21187;50.976;13.720;2022-12-08T17:20:07;97321.22;;;4.82;55.03
34983;BME280;21187;50.976;13.720;2022-12-08T17:25:09;97334.16;;;4.80;55.06
34983;BME280;21187;50.976;13.720;2022-12-08T17:30:12;97327.88;;;4.76;55.84
34983;BME280;21187;50.976;13.720;2022-12-08T17:35:16;97320.19;;;4.74;55.32
34983;BME280;21187;50.976;13.720;2022-12-08T17:40:18;97321.38;;;4.64;56.06
34983;BME280;21187;50.976;13.720;2022-12-08T17:45:20;97321.06;;;4.66;56.18
34983;BME280;21187;50.976;13.720;2022-12-08T17:50:21;97321.97;;;4.70;56.04
34983;BME280;21187;50.976;13.720;2022-12-08T17:55:23;97311.13;;;4.79;55.90
34983;BME280;21187;50.976;13.720;2022-12-08T18:00:25;97314.13;;;4.77;55.97
34983;BME280;21187;50.976;13.720;2022-12-08T18:05:29;97325.53;;;4.74;56.29
34983;BME280;21187;50.976;13.720;2022-12-08T18:10:31;97328.44;;;4.81;56.03
34983;BME280;21187;50.976;13.720;2022-12-08T18:15:33;97321.53;;;4.80;55.74
34983;BME280;21187;50.976;13.720;2022-12-08T18:20:39;97323.78;;;4.91;55.15
34983;BME280;21187;50.976;13.720;2022-12-08T18:25:42;97323.34;;;5.01;55.27
34983;BME280;21187;50.976;13.720;2022-12-08T18:30:44;97336.34;;;4.99;55.42
34983;BME280;21187;50.976;13.720;2022-12-08T18:35:45;97325.59;;;4.99;55.49
34983;BME280;21187;50.976;13.720;2022-12-08T18:40:47;97314.88;;;4.99;55.30
34983;BME280;21187;50.976;13.720;2022-12-08T18:45:49;97319.91;;;5.00;55.03
34983;BME280;21187;50.976;13.720;2022-12-08T18:51:00;97318.53;;;5.07;54.92
34983;BME280;21187;50.976;13.720;2022-12-08T18:56:03;97316.66;;;5.07;55.12
34983;BME280;21187;50.976;13.720;2022-12-08T19:01:05;97320.69;;;5.13;55.25
34983;BME280;21187;50.976;13.720;2022-12-08T19:06:07;97321.34;;;5.10;55.10
34983;BME280;21187;50.976;13.720;2022-12-08T19:11:25;97319.34;;;5.07;54.86
34983;BME280;21187;50.976;13.720;2022-12-08T19:16:27;97323.25;;;5.10;54.57
34983;BME280;21187;50.976;13.720;2022-12-08T19:21:29;97316.78;;;5.11;54.60
34983;BME280;21187;50.976;13.720;2022-12-08T19:26:31;97307.72;;;5.15;54.52
34983;BME280;21187;50.976;13.720;2022-12-08T19:31:32;97320.91;;;5.21;54.25
34983;BME280;21187;50.976;13.720;2022-12-08T19:36:35;97313.31;;;5.23;53.85
34983;BME280;21187;50.976;13.720;2022-12-08T19:41:43;97321.69;;;5.21;54.01
34983;BME280;21187;50.976;13.720;2022-12-08T19:47:03;97318.91;;;5.30;53.81
34983;BME280;21187;50.976;13.720;2022-12-08T19:52:05;97318.69;;;5.23;53.99
34983;BME280;21187;50.976;13.720;2022-12-08T19:57:07;97327.63;;;5.27;54.38
34983;BME280;21187;50.976;13.720;2022-12-08T20:02:10;97328.28;;;5.24;53.93
34983;BME280;21187;50.976;13.720;2022-12-08T20:07:12;97326.06;;;5.26;53.99
34983;BME280;21187;50.976;13.720;2022-12-08T20:12:14;97322.47;;;5.22;53.42
34983;BME280;21187;50.976;13.720;2022-12-08T20:17:16;97326.53;;;5.28;54.08
34983;BME280;21187;50.976;13.720;2022-12-08T20:22:18;97328.97;;;5.33;53.68
34983;BME280;21187;50.976;13.720;2022-12-08T20:27:20;97337.94;;;5.49;53.45
34983;BME280;21187;50.976;13.720;2022-12-08T20:32:24;97342.63;;;5.28;53.50
34983;BME280;21187;50.976;13.720;2022-12-08T20:37:25;97334.13;;;5.26;53.86
34983;BME280;21187;50.976;13.720;2022-12-08T20:42:27;97344.84;;;5.13;54.26
34983;BME280;21187;50.976;13.720;2022-12-08T20:47:29;97355.34;;;5.19;54.04
34983;BME280;21187;50.976;13.720;2022-12-08T20:52:31;97340.81;;;5.20;54.43
34983;BME280;21187;50.976;13.720;2022-12-08T20:57:34;97355.34;;;5.19;54.46
34983;BME280;21187;50.976;13.720;2022-12-08T21:02:36;97353.19;;;4.99;54.54
34983;BME280;21187;50.976;13.720;2022-12-08T21:07:45;97349.97;;;5.06;54.91
34983;BME280;21187;50.976;13.720;2022-12-08T21:12:47;97351.28;;;4.88;55.39
34983;BME280;21187;50.976;13.720;2022-12-08T21:17:50;97351.69;;;4.77;55.42
34983;BME280;21187;50.976;13.720;2022-12-08T21:22:54;97348.13;;;4.86;55.98
34983;BME280;21187;50.976;13.720;2022-12-08T21:27:56;97353.50;;;4.86;56.21
34983;BME280;21187;50.976;13.720;2022-12-08T21:32:59;97352.59;;;4.81;55.93
34983;BME280;21187;50.976;13.720;2022-12-08T21:38:03;97359.41;;;4.79;56.15
34983;BME280;21187;50.976;13.720;2022-12-08T21:43:06;97357.59;;;4.71;56.08
34983;BME280;21187;50.976;13.720;2022-12-08T21:48:08;97359.63;;;4.74;56.16
34983;BME280;21187;50.976;13.720;2022-12-08T21:53:12;97360.84;;;4.76;56.68
34983;BME280;21187;50.976;13.720;2022-12-08T21:58:14;97352.84;;;4.89;55.88
34983;BME280;21187;50.976;13.720;2022-12-08T22:03:16;97361.59;;;4.98;56.05
34983;BME280;21187;50.976;13.720;2022-12-08T22:08:18;97364.75;;;5.12;55.82
34983;BME280;21187;50.976;13.720;2022-12-08T22:13:20;97360.72;;;5.19;55.38
34983;BME280;21187;50.976;13.720;2022-12-08T22:18:22;97358.75;;;5.28;55.18
34983;BME280;21187;50.976;13.720;2022-12-08T22:23:25;97367.44;;;5.25;55.27
34983;BME280;21187;50.976;13.720;2022-12-08T22:28:30;97363.44;;;5.31;55.45
34983;BME280;21187;50.976;13.720;2022-12-08T22:33:33;97367.22;;;5.30;55.40
34983;BME280;21187;50.976;13.720;2022-12-08T22:38:34;97373.03;;;5.20;55.66
34983;BME280;21187;50.976;13.720;2022-12-08T22:43:36;97362.72;;;5.09;55.66
34983;BME280;21187;50.976;13.720;2022-12-08T22:48:38;97362.50;;;5.14;55.88
34983;BME280;21187;50.976;13.720;2022-12-08T22:53:42;97356.69;;;5.25;55.52
34983;BME280;21187;50.976;13.720;2022-12-08T22:58:44;97357.38;;;5.34;55.43
34983;BME280;21187;50.976;13.720;2022-12-08T23:03:46;97360.31;;;5.41;55.66
34983;BME280;21187;50.976;13.720;2022-12-08T23:08:49;97366.78;;;5.40;55.53
34983;BME280;21187;50.976;13.720;2022-12-08T23:13:52;97369.34;;;5.37;55.46
34983;BME280;21187;50.976;13.720;2022-12-08T23:18:54;97365.22;;;5.39;55.42
34983;BME280;21187;50.976;13.720;2022-12-08T23:23:58;97365.00;;;5.32;55.12
34983;BME280;21187;50.976;13.720;2022-12-08T23:29:02;97363.19;;;5.24;55.54
34983;BME280;21187;50.976;13.720;2022-12-08T23:34:04;97366.09;;;5.19;55.83
34983;BME280;21187;50.976;13.720;2022-12-08T23:39:06;97362.97;;;5.16;55.87
34983;BME280;21187;50.976;13.720;2022-12-08T23:44:08;97368.47;;;5.20;55.63
34983;BME280;21187;50.976;13.720;2022-12-08T23:49:13;97360.97;;;5.26;55.59
34983;BME280;21187;50.976;13.720;2022-12-08T23:54:15;97363.66;;;5.26;55.63
34983;BME280;21187;50.976;13.720;2022-12-08T23:59:17;97365.56;;;5.25;55.66
